sensor_id;sensor_type;location;lat;lon;timestamp;P1;durP1;ratioP1;P2;durP2;ratioP2
21430;SDS011;10876;49.038;10.608;2023-05-07T01:06:52;5.35;;;3.47;;
21430;SDS011;10876;49.038;10.608;2023-05-07T01:09:31;6.32;;;3.65;;
21430;SDS011;10876;49.038;10.608;2023-05-07T01:12:12;4.65;;;3.40;;
21430;SDS011;10876;49.038;10.608;2023-05-07T01:14:46;5.03;;;3.50;;
21430;SDS011;10876;49.038;10.608;2023-05-07T01:17:23;6.57;;;3.67;;
21430;SDS011;10876;49.038;10.608;2023-05-07T01:19:50;4.80;;;3.50;;
21430;SDS011;10876;49.038;10.608;2023-05-07T07:13:35;5.55;;;4.28;;
21430;SDS011;10876;49.038;10.608;2023-05-07T07:16:03;6.25;;;3.90;;
21430;SDS011;10876;49.038;10.608;2023-05-07T07:18:30;5.93;;;4.07;;
21430;SDS011;10876;49.038;10.608;2023-05-07T07:39:20;4.18;;;3.50;;
21430;SDS011;10876;49.038;10.608;2023-05-07T07:41:51;4.43;;;3.60;;
21430;SDS011;10876;49.038;10.608;2023-05-07T07:44:19;5.20;;;3.80;;
21430;SDS011;10876;49.038;10.608;2023-05-07T07:46:49;4.38;;;3.60;;
21430;SDS011;10876;49.038;10.608;2023-05-07T07:49:19;5.07;;;3.80;;
21430;SDS011;10876;49.038;10.608;2023-05-07T07:51:46;6.22;;;3.50;;
21430;SDS011;10876;49.038;10.608;2023-05-07T07:54:16;5.22;;;3.80;;
21430;SDS011;10876;49.038;10.608;2023-05-07T07:56:48;7.25;;;4.28;;
21430;SDS011;10876;49.038;10.608;2023-05-07T07:59:15;4.53;;;3.78;;
21430;SDS011;10876;49.038;10.608;2023-05-07T08:01:44;4.45;;;3.53;;
21430;SDS011;10876;49.038;10.608;2023-05-07T08:04:13;4.88;;;4.00;;
21430;SDS011;10876;49.038;10.608;2023-05-07T08:06:41;4.82;;;3.97;;
21430;SDS011;10876;49.038;10.608;2023-05-07T08:09:08;6.10;;;4.43;;
21430;SDS011;10876;49.038;10.608;2023-05-07T08:11:35;5.05;;;4.00;;
21430;SDS011;10876;49.038;10.608;2023-05-07T08:14:03;7.80;;;4.50;;
21430;SDS011;10876;49.038;10.608;2023-05-07T08:16:31;5.47;;;4.50;;
21430;SDS011;10876;49.038;10.608;2023-05-07T08:18:58;5.47;;;4.07;;
21430;SDS011;10876;49.038;10.608;2023-05-07T08:21:25;6.10;;;4.90;;
21430;SDS011;10876;49.038;10.608;2023-05-07T08:23:52;6.10;;;4.35;;
21430;SDS011;10876;49.038;10.608;2023-05-07T08:26:19;5.45;;;3.97;;
21430;SDS011;10876;49.038;10.608;2023-05-07T08:28:46;5.22;;;4.25;;
21430;SDS011;10876;49.038;10.608;2023-05-07T08:31:14;4.80;;;4.28;;
21430;SDS011;10876;49.038;10.608;2023-05-07T08:33:41;6.43;;;4.43;;
21430;SDS011;10876;49.038;10.608;2023-05-07T08:36:08;4.57;;;4.05;;
21430;SDS011;10876;49.038;10.608;2023-05-07T08:38:35;4.53;;;3.78;;
21430;SDS011;10876;49.038;10.608;2023-05-07T08:41:02;5.10;;;3.90;;
21430;SDS011;10876;49.038;10.608;2023-05-07T08:50:18;5.72;;;4.28;;
21430;SDS011;10876;49.038;10.608;2023-05-07T08:52:46;5.78;;;4.28;;
21430;SDS011;10876;49.038;10.608;2023-05-07T08:55:13;5.65;;;3.22;;
21430;SDS011;10876;49.038;10.608;2023-05-07T08:57:41;4.53;;;3.55;;
21430;SDS011;10876;49.038;10.608;2023-05-07T09:00:08;5.18;;;4.07;;
21430;SDS011;10876;49.038;10.608;2023-05-07T09:02:36;5.00;;;4.30;;
21430;SDS011;10876;49.038;10.608;2023-05-07T09:05:05;5.22;;;4.20;;
21430;SDS011;10876;49.038;10.608;2023-05-07T09:07:33;5.85;;;4.32;;
21430;SDS011;10876;49.038;10.608;2023-05-07T09:10:01;6.00;;;4.03;;
21430;SDS011;10876;49.038;10.608;2023-05-07T09:12:31;4.55;;;3.90;;
21430;SDS011;10876;49.038;10.608;2023-05-07T09:15:00;4.53;;;3.70;;
21430;SDS011;10876;49.038;10.608;2023-05-07T09:17:28;5.15;;;4.40;;
21430;SDS011;10876;49.038;10.608;2023-05-07T09:19:54;4.75;;;3.70;;
21430;SDS011;10876;49.038;10.608;2023-05-07T09:22:23;4.75;;;4.32;;
21430;SDS011;10876;49.038;10.608;2023-05-07T09:24:50;5.70;;;2.45;;
21430;SDS011;10876;49.038;10.608;2023-05-07T09:27:17;2.42;;;2.15;;
21430;SDS011;10876;49.038;10.608;2023-05-07T09:29:45;2.63;;;2.22;;
21430;SDS011;10876;49.038;10.608;2023-05-07T09:32:11;2.47;;;2.28;;
21430;SDS011;10876;49.038;10.608;2023-05-07T09:34:39;4.45;;;2.10;;
21430;SDS011;10876;49.038;10.608;2023-05-07T09:37:06;3.30;;;2.47;;
21430;SDS011;10876;49.038;10.608;2023-05-07T09:39:41;2.80;;;2.00;;
21430;SDS011;10876;49.038;10.608;2023-05-07T09:42:09;2.30;;;1.67;;
21430;SDS011;10876;49.038;10.608;2023-05-07T09:47:42;2.67;;;1.80;;
21430;SDS011;10876;49.038;10.608;2023-05-07T09:50:13;2.78;;;1.80;;
21430;SDS011;10876;49.038;10.608;2023-05-07T09:52:45;3.17;;;2.85;;
21430;SDS011;10876;49.038;10.608;2023-05-07T10:05:48;4.53;;;2.80;;
21430;SDS011;10876;49.038;10.608;2023-05-07T10:08:16;3.30;;;2.80;;
21430;SDS011;10876;49.038;10.608;2023-05-07T10:10:45;4.53;;;2.90;;
21430;SDS011;10876;49.038;10.608;2023-05-07T10:13:12;4.78;;;2.80;;
21430;SDS011;10876;49.038;10.608;2023-05-07T10:15:39;3.95;;;3.10;;
21430;SDS011;10876;49.038;10.608;2023-05-07T10:18:07;3.97;;;3.00;;
21430;SDS011;10876;49.038;10.608;2023-05-07T10:35:13;2.72;;;2.30;;
21430;SDS011;10876;49.038;10.608;2023-05-07T10:37:53;3.25;;;2.95;;
21430;SDS011;10876;49.038;10.608;2023-05-07T10:40:23;3.22;;;2.75;;
21430;SDS011;10876;49.038;10.608;2023-05-07T10:42:57;3.67;;;3.00;;
21430;SDS011;10876;49.038;10.608;2023-05-07T10:45:38;2.97;;;2.67;;
21430;SDS011;10876;49.038;10.608;2023-05-07T10:48:11;3.45;;;2.58;;
21430;SDS011;10876;49.038;10.608;2023-05-07T10:50:43;3.92;;;2.70;;
21430;SDS011;10876;49.038;10.608;2023-05-07T11:02:07;6.90;;;2.92;;
21430;SDS011;10876;49.038;10.608;2023-05-07T11:04:35;3.28;;;2.70;;
21430;SDS011;10876;49.038;10.608;2023-05-07T11:10:06;3.85;;;2.53;;
21430;SDS011;10876;49.038;10.608;2023-05-07T11:12:47;2.67;;;2.03;;
21430;SDS011;10876;49.038;10.608;2023-05-07T11:18:19;2.60;;;2.20;;
21430;SDS011;10876;49.038;10.608;2023-05-07T11:24:13;3.17;;;2.50;;
21430;SDS011;10876;49.038;10.608;2023-05-07T11:26:50;3.80;;;2.35;;
21430;SDS011;10876;49.038;10.608;2023-05-07T11:29:35;2.85;;;2.03;;
21430;SDS011;10876;49.038;10.608;2023-05-07T11:35:15;2.92;;;2.30;;
21430;SDS011;10876;49.038;10.608;2023-05-07T11:40:50;3.30;;;2.33;;
21430;SDS011;10876;49.038;10.608;2023-05-07T11:43:21;3.75;;;2.45;;
21430;SDS011;10876;49.038;10.608;2023-05-07T11:45:48;3.50;;;2.40;;
21430;SDS011;10876;49.038;10.608;2023-05-07T11:48:16;4.15;;;2.30;;
21430;SDS011;10876;49.038;10.608;2023-05-07T11:50:50;3.28;;;2.42;;
21430;SDS011;10876;49.038;10.608;2023-05-07T11:56:12;2.40;;;2.20;;
21430;SDS011;10876;49.038;10.608;2023-05-07T12:02:34;5.82;;;2.60;;
21430;SDS011;10876;49.038;10.608;2023-05-07T12:05:01;3.28;;;2.03;;
21430;SDS011;10876;49.038;10.608;2023-05-07T12:07:29;3.50;;;2.60;;
21430;SDS011;10876;49.038;10.608;2023-05-07T12:09:57;2.42;;;2.22;;
21430;SDS011;10876;49.038;10.608;2023-05-07T12:12:25;2.92;;;2.40;;
21430;SDS011;10876;49.038;10.608;2023-05-07T12:14:53;2.53;;;2.00;;
21430;SDS011;10876;49.038;10.608;2023-05-07T12:17:19;2.80;;;2.20;;
21430;SDS011;10876;49.038;10.608;2023-05-07T12:19:47;3.63;;;2.20;;
21430;SDS011;10876;49.038;10.608;2023-05-07T12:22:14;4.03;;;2.50;;
21430;SDS011;10876;49.038;10.608;2023-05-07T12:24:42;6.03;;;2.58;;
21430;SDS011;10876;49.038;10.608;2023-05-07T12:27:10;3.13;;;2.28;;
21430;SDS011;10876;49.038;10.608;2023-05-07T12:29:39;2.47;;;2.25;;
21430;SDS011;10876;49.038;10.608;2023-05-07T12:32:12;3.22;;;2.03;;
21430;SDS011;10876;49.038;10.608;2023-05-07T12:34:40;3.17;;;2.35;;
21430;SDS011;10876;49.038;10.608;2023-05-07T12:37:07;2.72;;;1.95;;
21430;SDS011;10876;49.038;10.608;2023-05-07T12:39:35;4.05;;;2.00;;
21430;SDS011;10876;49.038;10.608;2023-05-07T12:42:02;2.42;;;2.10;;
21430;SDS011;10876;49.038;10.608;2023-05-07T12:44:30;2.53;;;2.08;;
21430;SDS011;10876;49.038;10.608;2023-05-07T12:46:59;2.20;;;1.95;;
21430;SDS011;10876;49.038;10.608;2023-05-07T12:49:28;2.47;;;2.03;;
21430;SDS011;10876;49.038;10.608;2023-05-07T12:52:10;2.58;;;1.90;;
21430;SDS011;10876;49.038;10.608;2023-05-07T12:57:30;2.05;;;1.85;;
21430;SDS011;10876;49.038;10.608;2023-05-07T13:04:05;3.03;;;2.20;;
21430;SDS011;10876;49.038;10.608;2023-05-07T13:06:32;3.28;;;1.80;;
21430;SDS011;10876;49.038;10.608;2023-05-07T13:08:59;2.53;;;2.03;;
21430;SDS011;10876;49.038;10.608;2023-05-07T13:11:26;3.13;;;1.92;;
21430;SDS011;10876;49.038;10.608;2023-05-07T13:13:53;2.97;;;2.05;;
21430;SDS011;10876;49.038;10.608;2023-05-07T13:16:20;3.97;;;2.15;;
21430;SDS011;10876;49.038;10.608;2023-05-07T13:18:47;4.22;;;2.00;;
21430;SDS011;10876;49.038;10.608;2023-05-07T13:21:16;2.65;;;2.00;;
21430;SDS011;10876;49.038;10.608;2023-05-07T13:23:45;3.05;;;1.98;;
21430;SDS011;10876;49.038;10.608;2023-05-07T13:26:12;4.53;;;1.90;;
21430;SDS011;10876;49.038;10.608;2023-05-07T13:28:39;2.08;;;1.90;;
21430;SDS011;10876;49.038;10.608;2023-05-07T13:34:36;2.10;;;1.90;;
21430;SDS011;10876;49.038;10.608;2023-05-07T13:40:05;2.85;;;2.00;;
21430;SDS011;10876;49.038;10.608;2023-05-07T13:42:38;2.53;;;2.00;;
21430;SDS011;10876;49.038;10.608;2023-05-07T13:45:05;5.70;;;1.83;;
21430;SDS011;10876;49.038;10.608;2023-05-07T13:47:33;3.00;;;2.13;;
21430;SDS011;10876;49.038;10.608;2023-05-07T13:50:00;5.43;;;2.30;;
21430;SDS011;10876;49.038;10.608;2023-05-07T13:52:27;3.72;;;1.98;;
21430;SDS011;10876;49.038;10.608;2023-05-07T13:54:55;2.40;;;1.92;;
21430;SDS011;10876;49.038;10.608;2023-05-07T13:57:23;2.20;;;2.00;;
21430;SDS011;10876;49.038;10.608;2023-05-07T13:59:50;2.20;;;2.00;;
21430;SDS011;10876;49.038;10.608;2023-05-07T14:02:17;3.20;;;2.33;;
21430;SDS011;10876;49.038;10.608;2023-05-07T14:04:44;2.65;;;2.10;;
21430;SDS011;10876;49.038;10.608;2023-05-07T14:07:11;3.33;;;2.10;;
21430;SDS011;10876;49.038;10.608;2023-05-07T14:09:38;2.17;;;1.98;;
21430;SDS011;10876;49.038;10.608;2023-05-07T14:12:07;2.10;;;1.90;;
21430;SDS011;10876;49.038;10.608;2023-05-07T14:14:34;3.03;;;2.00;;
21430;SDS011;10876;49.038;10.608;2023-05-07T14:17:01;3.15;;;2.10;;
21430;SDS011;10876;49.038;10.608;2023-05-07T14:19:28;5.40;;;1.98;;
21430;SDS011;10876;49.038;10.608;2023-05-07T14:21:55;2.78;;;2.00;;
21430;SDS011;10876;49.038;10.608;2023-05-07T14:24:22;3.40;;;2.13;;
21430;SDS011;10876;49.038;10.608;2023-05-07T14:30:36;2.70;;;2.28;;
21430;SDS011;10876;49.038;10.608;2023-05-07T14:33:03;3.40;;;2.10;;
21430;SDS011;10876;49.038;10.608;2023-05-07T14:35:30;6.95;;;2.00;;
21430;SDS011;10876;49.038;10.608;2023-05-07T14:37:57;2.75;;;1.92;;
21430;SDS011;10876;49.038;10.608;2023-05-07T14:40:24;2.08;;;1.88;;
21430;SDS011;10876;49.038;10.608;2023-05-07T14:42:50;3.92;;;2.17;;
21430;SDS011;10876;49.038;10.608;2023-05-07T14:45:17;2.50;;;2.10;;
21430;SDS011;10876;49.038;10.608;2023-05-07T14:47:46;2.90;;;2.20;;
21430;SDS011;10876;49.038;10.608;2023-05-07T14:50:13;3.30;;;2.25;;
21430;SDS011;10876;49.038;10.608;2023-05-07T14:52:40;4.82;;;2.10;;
21430;SDS011;10876;49.038;10.608;2023-05-07T14:55:07;3.05;;;2.42;;
21430;SDS011;10876;49.038;10.608;2023-05-07T14:57:35;4.13;;;2.50;;
21430;SDS011;10876;49.038;10.608;2023-05-07T15:00:03;2.42;;;2.22;;
21430;SDS011;10876;49.038;10.608;2023-05-07T15:02:32;2.80;;;2.50;;
21430;SDS011;10876;49.038;10.608;2023-05-07T15:05:00;3.25;;;2.10;;
21430;SDS011;10876;49.038;10.608;2023-05-07T15:07:27;2.95;;;2.38;;
21430;SDS011;10876;49.038;10.608;2023-05-07T15:09:54;3.38;;;2.40;;
21430;SDS011;10876;49.038;10.608;2023-05-07T15:12:21;4.10;;;2.22;;
21430;SDS011;10876;49.038;10.608;2023-05-07T15:14:48;3.75;;;2.35;;
21430;SDS011;10876;49.038;10.608;2023-05-07T15:17:15;2.33;;;1.90;;
21430;SDS011;10876;49.038;10.608;2023-05-07T15:19:42;2.38;;;2.17;;
21430;SDS011;10876;49.038;10.608;2023-05-07T15:22:10;3.03;;;2.38;;
21430;SDS011;10876;49.038;10.608;2023-05-07T15:24:37;2.63;;;2.10;;
21430;SDS011;10876;49.038;10.608;2023-05-07T15:27:04;2.90;;;2.25;;
21430;SDS011;10876;49.038;10.608;2023-05-07T15:29:32;3.10;;;2.20;;
21430;SDS011;10876;49.038;10.608;2023-05-07T15:31:59;3.10;;;2.30;;
21430;SDS011;10876;49.038;10.608;2023-05-07T15:34:26;3.55;;;2.47;;
21430;SDS011;10876;49.038;10.608;2023-05-07T15:36:54;3.35;;;2.58;;
21430;SDS011;10876;49.038;10.608;2023-05-07T15:39:23;3.90;;;2.30;;
21430;SDS011;10876;49.038;10.608;2023-05-07T15:41:50;2.67;;;2.38;;
21430;SDS011;10876;49.038;10.608;2023-05-07T15:44:17;3.05;;;2.30;;
21430;SDS011;10876;49.038;10.608;2023-05-07T15:46:44;2.63;;;2.22;;
21430;SDS011;10876;49.038;10.608;2023-05-07T15:49:11;4.80;;;2.08;;
21430;SDS011;10876;49.038;10.608;2023-05-07T15:51:38;2.50;;;2.30;;
21430;SDS011;10876;49.038;10.608;2023-05-07T15:57:47;5.70;;;2.47;;
21430;SDS011;10876;49.038;10.608;2023-05-07T16:00:14;4.22;;;2.33;;
21430;SDS011;10876;49.038;10.608;2023-05-07T16:02:43;5.38;;;2.70;;
21430;SDS011;10876;49.038;10.608;2023-05-07T16:05:10;5.22;;;2.80;;
21430;SDS011;10876;49.038;10.608;2023-05-07T16:07:37;5.85;;;2.22;;
21430;SDS011;10876;49.038;10.608;2023-05-07T16:10:07;3.22;;;2.40;;
21430;SDS011;10876;49.038;10.608;2023-05-07T16:19:08;3.30;;;2.50;;
21430;SDS011;10876;49.038;10.608;2023-05-07T16:24:43;5.03;;;2.67;;
21430;SDS011;10876;49.038;10.608;2023-05-07T16:29:57;3.58;;;2.50;;
21430;SDS011;10876;49.038;10.608;2023-05-07T16:39:55;2.97;;;2.20;;
21430;SDS011;10876;49.038;10.608;2023-05-07T16:42:23;5.07;;;2.47;;
21430;SDS011;10876;49.038;10.608;2023-05-07T16:44:50;2.88;;;2.28;;
21430;SDS011;10876;49.038;10.608;2023-05-07T16:47:18;2.90;;;2.53;;
21430;SDS011;10876;49.038;10.608;2023-05-07T16:49:45;2.88;;;2.10;;
21430;SDS011;10876;49.038;10.608;2023-05-07T16:52:12;3.25;;;2.15;;
21430;SDS011;10876;49.038;10.608;2023-05-07T16:54:39;2.63;;;2.22;;
21430;SDS011;10876;49.038;10.608;2023-05-07T16:57:08;3.78;;;2.30;;
21430;SDS011;10876;49.038;10.608;2023-05-07T16:59:34;3.42;;;2.30;;
21430;SDS011;10876;49.038;10.608;2023-05-07T17:02:01;3.83;;;2.20;;
21430;SDS011;10876;49.038;10.608;2023-05-07T17:04:28;2.72;;;2.40;;
21430;SDS011;10876;49.038;10.608;2023-05-07T17:06:56;4.93;;;2.38;;
21430;SDS011;10876;49.038;10.608;2023-05-07T17:09:23;3.20;;;2.53;;
21430;SDS011;10876;49.038;10.608;2023-05-07T17:11:50;3.38;;;2.53;;
21430;SDS011;10876;49.038;10.608;2023-05-07T17:14:18;3.55;;;2.40;;
21430;SDS011;10876;49.038;10.608;2023-05-07T17:16:45;2.60;;;2.40;;
21430;SDS011;10876;49.038;10.608;2023-05-07T17:19:12;2.85;;;2.30;;
21430;SDS011;10876;49.038;10.608;2023-05-07T17:21:39;2.72;;;2.33;;
21430;SDS011;10876;49.038;10.608;2023-05-07T17:24:06;2.47;;;2.22;;
21430;SDS011;10876;49.038;10.608;2023-05-07T17:26:33;3.08;;;2.30;;
21430;SDS011;10876;49.038;10.608;2023-05-07T17:29:02;3.33;;;2.10;;
21430;SDS011;10876;49.038;10.608;2023-05-07T17:31:30;2.50;;;2.25;;
21430;SDS011;10876;49.038;10.608;2023-05-07T17:33:57;3.17;;;2.35;;
21430;SDS011;10876;49.038;10.608;2023-05-07T17:36:24;2.78;;;2.20;;
21430;SDS011;10876;49.038;10.608;2023-05-07T17:38:51;2.42;;;2.22;;
21430;SDS011;10876;49.038;10.608;2023-05-07T17:41:18;2.83;;;2.20;;
21430;SDS011;10876;49.038;10.608;2023-05-07T17:43:45;3.63;;;2.33;;
21430;SDS011;10876;49.038;10.608;2023-05-07T17:46:12;4.03;;;2.10;;
21430;SDS011;10876;49.038;10.608;2023-05-07T17:48:41;4.40;;;2.58;;
21430;SDS011;10876;49.038;10.608;2023-05-07T18:32:04;4.07;;;2.38;;
21430;SDS011;10876;49.038;10.608;2023-05-07T18:34:31;2.50;;;2.25;;
21430;SDS011;10876;49.038;10.608;2023-05-07T18:36:58;4.15;;;2.40;;
21430;SDS011;10876;49.038;10.608;2023-05-07T18:39:25;2.42;;;2.22;;
21430;SDS011;10876;49.038;10.608;2023-05-07T18:41:52;3.13;;;2.33;;
21430;SDS011;10876;49.038;10.608;2023-05-07T18:44:19;3.72;;;2.40;;
21430;SDS011;10876;49.038;10.608;2023-05-07T18:46:45;3.17;;;2.70;;
21430;SDS011;10876;49.038;10.608;2023-05-07T18:49:14;3.58;;;2.50;;
21430;SDS011;10876;49.038;10.608;2023-05-07T18:51:41;6.32;;;2.83;;
21430;SDS011;10876;49.038;10.608;2023-05-07T18:54:09;6.03;;;2.92;;
21430;SDS011;10876;49.038;10.608;2023-05-07T18:56:36;4.40;;;3.00;;
21430;SDS011;10876;49.038;10.608;2023-05-07T18:59:03;5.78;;;2.92;;
21430;SDS011;10876;49.038;10.608;2023-05-07T19:01:29;4.05;;;3.10;;
21430;SDS011;10876;49.038;10.608;2023-05-07T19:03:56;4.00;;;3.20;;
21430;SDS011;10876;49.038;10.608;2023-05-07T19:06:25;4.55;;;3.42;;
21430;SDS011;10876;49.038;10.608;2023-05-07T19:08:52;5.75;;;3.22;;
21430;SDS011;10876;49.038;10.608;2023-05-07T19:11:19;5.07;;;3.60;;
21430;SDS011;10876;49.038;10.608;2023-05-07T19:13:46;4.43;;;3.70;;
21430;SDS011;10876;49.038;10.608;2023-05-07T19:16:13;5.78;;;3.70;;
21430;SDS011;10876;49.038;10.608;2023-05-07T19:18:40;4.28;;;3.20;;
21430;SDS011;10876;49.038;10.608;2023-05-07T19:21:07;3.00;;;2.42;;
21430;SDS011;10876;49.038;10.608;2023-05-07T19:23:36;2.20;;;2.00;;
21430;SDS011;10876;49.038;10.608;2023-05-07T19:26:06;4.47;;;2.50;;
21430;SDS011;10876;49.038;10.608;2023-05-07T19:28:34;3.17;;;2.10;;
21430;SDS011;10876;49.038;10.608;2023-05-07T19:31:01;3.50;;;2.40;;
21430;SDS011;10876;49.038;10.608;2023-05-07T19:33:28;4.28;;;2.13;;
21430;SDS011;10876;49.038;10.608;2023-05-07T19:35:55;4.03;;;2.40;;
21430;SDS011;10876;49.038;10.608;2023-05-07T19:38:23;3.60;;;2.33;;
21430;SDS011;10876;49.038;10.608;2023-05-07T19:40:53;4.10;;;2.70;;
21430;SDS011;10876;49.038;10.608;2023-05-07T19:43:21;4.82;;;2.65;;
21430;SDS011;10876;49.038;10.608;2023-05-07T19:45:50;5.45;;;2.53;;
21430;SDS011;10876;49.038;10.608;2023-05-07T19:48:19;4.80;;;2.88;;
21430;SDS011;10876;49.038;10.608;2023-05-07T19:50:46;5.72;;;2.72;;
21430;SDS011;10876;49.038;10.608;2023-05-07T19:53:13;7.45;;;2.90;;
21430;SDS011;10876;49.038;10.608;2023-05-07T19:55:40;3.72;;;2.60;;
21430;SDS011;10876;49.038;10.608;2023-05-07T19:58:09;3.65;;;2.50;;
21430;SDS011;10876;49.038;10.608;2023-05-07T20:00:35;5.53;;;2.65;;
21430;SDS011;10876;49.038;10.608;2023-05-07T20:03:02;2.95;;;2.58;;
21430;SDS011;10876;49.038;10.608;2023-05-07T20:05:30;3.33;;;2.50;;
21430;SDS011;10876;49.038;10.608;2023-05-07T20:07:57;3.67;;;3.00;;
21430;SDS011;10876;49.038;10.608;2023-05-07T20:10:25;6.72;;;3.38;;
21430;SDS011;10876;49.038;10.608;2023-05-07T20:12:52;4.32;;;2.72;;
21430;SDS011;10876;49.038;10.608;2023-05-07T20:15:20;6.45;;;3.05;;
21430;SDS011;10876;49.038;10.608;2023-05-07T20:17:47;4.75;;;2.72;;
21430;SDS011;10876;49.038;10.608;2023-05-07T20:20:14;3.58;;;2.50;;
21430;SDS011;10876;49.038;10.608;2023-05-07T20:22:41;3.63;;;2.95;;
21430;SDS011;10876;49.038;10.608;2023-05-07T20:25:08;4.35;;;3.05;;
21430;SDS011;10876;49.038;10.608;2023-05-07T20:27:37;2.97;;;2.60;;
21430;SDS011;10876;49.038;10.608;2023-05-07T20:30:05;2.83;;;2.58;;
21430;SDS011;10876;49.038;10.608;2023-05-07T20:32:35;2.92;;;2.63;;
21430;SDS011;10876;49.038;10.608;2023-05-07T20:35:02;3.85;;;2.83;;
21430;SDS011;10876;49.038;10.608;2023-05-07T20:37:30;3.80;;;2.95;;
21430;SDS011;10876;49.038;10.608;2023-05-07T20:39:58;3.20;;;2.60;;
21430;SDS011;10876;49.038;10.608;2023-05-07T20:42:25;4.25;;;2.60;;
21430;SDS011;10876;49.038;10.608;2023-05-07T20:44:52;3.75;;;2.80;;
21430;SDS011;10876;49.038;10.608;2023-05-07T20:47:19;4.10;;;2.67;;
21430;SDS011;10876;49.038;10.608;2023-05-07T20:49:49;4.53;;;2.85;;
21430;SDS011;10876;49.038;10.608;2023-05-07T20:52:17;5.10;;;3.88;;
21430;SDS011;10876;49.038;10.608;2023-05-07T20:54:44;3.58;;;3.05;;
21430;SDS011;10876;49.038;10.608;2023-05-07T20:57:14;6.55;;;3.97;;
21430;SDS011;10876;49.038;10.608;2023-05-07T20:59:41;5.55;;;4.40;;
21430;SDS011;10876;49.038;10.608;2023-05-07T21:02:08;4.75;;;3.50;;
21430;SDS011;10876;49.038;10.608;2023-05-07T21:04:35;5.38;;;3.30;;
21430;SDS011;10876;49.038;10.608;2023-05-07T21:07:03;3.67;;;2.85;;
21430;SDS011;10876;49.038;10.608;2023-05-07T21:09:31;3.50;;;2.92;;
21430;SDS011;10876;49.038;10.608;2023-05-07T21:11:58;6.05;;;2.95;;
21430;SDS011;10876;49.038;10.608;2023-05-07T21:14:25;4.78;;;3.00;;
21430;SDS011;10876;49.038;10.608;2023-05-07T21:16:52;4.32;;;2.92;;
21430;SDS011;10876;49.038;10.608;2023-05-07T21:19:19;4.63;;;3.13;;
21430;SDS011;10876;49.038;10.608;2023-05-07T21:21:46;5.03;;;3.70;;
21430;SDS011;10876;49.038;10.608;2023-05-07T21:24:14;4.93;;;3.20;;
21430;SDS011;10876;49.038;10.608;2023-05-07T21:26:41;4.20;;;3.10;;
21430;SDS011;10876;49.038;10.608;2023-05-07T21:29:08;3.42;;;3.13;;
21430;SDS011;10876;49.038;10.608;2023-05-07T21:31:35;6.38;;;3.83;;
21430;SDS011;10876;49.038;10.608;2023-05-07T21:34:02;4.85;;;3.60;;
21430;SDS011;10876;49.038;10.608;2023-05-07T21:36:31;5.20;;;3.40;;
21430;SDS011;10876;49.038;10.608;2023-05-07T21:38:58;4.05;;;3.17;;
21430;SDS011;10876;49.038;10.608;2023-05-07T21:41:27;5.95;;;3.25;;
21430;SDS011;10876;49.038;10.608;2023-05-07T21:43:54;5.00;;;3.92;;
21430;SDS011;10876;49.038;10.608;2023-05-07T21:46:21;4.13;;;3.45;;
21430;SDS011;10876;49.038;10.608;2023-05-07T21:48:48;5.47;;;3.40;;
21430;SDS011;10876;49.038;10.608;2023-05-07T21:51:15;6.43;;;3.85;;
21430;SDS011;10876;49.038;10.608;2023-05-07T21:53:42;4.88;;;3.60;;
21430;SDS011;10876;49.038;10.608;2023-05-07T21:56:09;4.30;;;3.67;;
21430;SDS011;10876;49.038;10.608;2023-05-07T21:58:37;5.43;;;3.80;;
21430;SDS011;10876;49.038;10.608;2023-05-07T22:01:04;4.60;;;4.07;;
21430;SDS011;10876;49.038;10.608;2023-05-07T22:03:33;7.32;;;4.20;;
21430;SDS011;10876;49.038;10.608;2023-05-07T22:06:02;6.50;;;4.05;;
21430;SDS011;10876;49.038;10.608;2023-05-07T22:08:30;5.75;;;4.25;;
21430;SDS011;10876;49.038;10.608;2023-05-07T22:10:57;6.45;;;4.35;;
21430;SDS011;10876;49.038;10.608;2023-05-07T22:13:24;6.00;;;4.55;;
21430;SDS011;10876;49.038;10.608;2023-05-07T22:15:52;6.03;;;4.38;;
21430;SDS011;10876;49.038;10.608;2023-05-07T22:18:19;7.32;;;4.32;;
21430;SDS011;10876;49.038;10.608;2023-05-07T22:20:47;5.20;;;3.90;;
21430;SDS011;10876;49.038;10.608;2023-05-07T22:23:16;5.57;;;4.32;;
21430;SDS011;10876;49.038;10.608;2023-05-07T22:25:43;6.60;;;4.70;;
21430;SDS011;10876;49.038;10.608;2023-05-07T22:28:10;8.02;;;5.05;;
21430;SDS011;10876;49.038;10.608;2023-05-07T22:30:37;10.48;;;6.43;;
21430;SDS011;10876;49.038;10.608;2023-05-07T22:33:05;9.15;;;6.15;;
21430;SDS011;10876;49.038;10.608;2023-05-07T22:35:32;9.07;;;6.43;;
21430;SDS011;10876;49.038;10.608;2023-05-07T22:37:59;9.73;;;6.22;;
21430;SDS011;10876;49.038;10.608;2023-05-07T22:40:26;9.52;;;6.25;;
21430;SDS011;10876;49.038;10.608;2023-05-07T22:42:53;10.27;;;6.78;;
21430;SDS011;10876;49.038;10.608;2023-05-07T22:45:20;9.18;;;6.32;;
21430;SDS011;10876;49.038;10.608;2023-05-07T22:47:47;9.50;;;6.45;;
21430;SDS011;10876;49.038;10.608;2023-05-07T22:50:15;10.00;;;6.82;;
21430;SDS011;10876;49.038;10.608;2023-05-07T22:52:42;10.45;;;7.22;;
21430;SDS011;10876;49.038;10.608;2023-05-07T22:55:09;10.57;;;6.70;;
21430;SDS011;10876;49.038;10.608;2023-05-07T22:57:36;12.90;;;7.30;;
21430;SDS011;10876;49.038;10.608;2023-05-07T23:00:04;10.70;;;7.13;;
21430;SDS011;10876;49.038;10.608;2023-05-07T23:02:31;11.18;;;7.05;;
21430;SDS011;10876;49.038;10.608;2023-05-07T23:04:58;10.02;;;6.93;;
21430;SDS011;10876;49.038;10.608;2023-05-07T23:07:27;11.27;;;7.53;;
21430;SDS011;10876;49.038;10.608;2023-05-07T23:09:54;9.98;;;6.93;;
21430;SDS011;10876;49.038;10.608;2023-05-07T23:12:21;9.82;;;7.07;;
21430;SDS011;10876;49.038;10.608;2023-05-07T23:14:48;9.02;;;6.78;;
21430;SDS011;10876;49.038;10.608;2023-05-07T23:17:15;9.98;;;6.60;;
21430;SDS011;10876;49.038;10.608;2023-05-07T23:19:42;8.88;;;6.30;;
21430;SDS011;10876;49.038;10.608;2023-05-07T23:22:09;8.85;;;5.57;;
21430;SDS011;10876;49.038;10.608;2023-05-07T23:24:37;9.23;;;6.05;;
21430;SDS011;10876;49.038;10.608;2023-05-07T23:27:04;8.82;;;6.18;;
21430;SDS011;10876;49.038;10.608;2023-05-07T23:29:32;8.50;;;5.40;;
21430;SDS011;10876;49.038;10.608;2023-05-07T23:31:59;8.82;;;6.00;;
21430;SDS011;10876;49.038;10.608;2023-05-07T23:34:26;10.18;;;6.85;;
21430;SDS011;10876;49.038;10.608;2023-05-07T23:36:53;10.27;;;6.57;;
21430;SDS011;10876;49.038;10.608;2023-05-07T23:39:20;10.07;;;6.43;;
21430;SDS011;10876;49.038;10.608;2023-05-07T23:41:48;9.68;;;6.43;;
21430;SDS011;10876;49.038;10.608;2023-05-07T23:44:15;10.65;;;7.50;;
21430;SDS011;10876;49.038;10.608;2023-05-07T23:46:42;9.65;;;6.80;;
21430;SDS011;10876;49.038;10.608;2023-05-07T23:49:10;10.23;;;7.05;;
21430;SDS011;10876;49.038;10.608;2023-05-07T23:51:37;9.18;;;6.85;;
21430;SDS011;10876;49.038;10.608;2023-05-07T23:54:04;11.00;;;7.05;;
21430;SDS011;10876;49.038;10.608;2023-05-07T23:56:31;9.20;;;6.35;;
21430;SDS011;10876;49.038;10.608;2023-05-07T23:59:00;11.48;;;6.93;;
